Time;durP1;ratioP1;P1;durP2;ratioP2;P2;SDS_P1;SDS_P2;PMS_P1;PMS_P2;Temp;Humidity;BMP_temperature;BMP_pressure;BME280_temperature;BME280_humidity;BME280_pressure;Samples;Min_cycle;Max_cycle;Signal;HPM_P1;HPM_P2
2022/06/07 00:02:25;;;;;;;22.95;6.95;;;24.00;99.90;;;;;;6246658;23;20020;-92
2022/06/07 00:04:53;;;;;;;28.15;8.07;;;24.00;99.90;;;;;;6245904;23;20008;-92
2022/06/07 00:07:29;;;;;;;21.83;7.35;;;24.00;99.90;;;;;;6245743;23;20422;-90
2022/06/07 00:09:56;;;;;;;18.92;6.40;;;24.00;99.90;;;;;;6245684;23;20008;-92
2022/06/07 00:12:24;;;;;;;20.30;7.10;;;24.00;99.90;;;;;;6245860;23;20044;-92
2022/06/07 00:14:51;;;;;;;18.95;6.32;;;24.10;99.90;;;;;;6245470;23;20022;-93
2022/06/07 00:17:23;;;;;;;23.73;7.43;;;24.10;99.90;;;;;;6245763;23;20019;-91
2022/06/07 00:19:50;;;;;;;23.25;7.40;;;24.10;99.90;;;;;;6245755;23;20004;-90
2022/06/07 00:22:16;;;;;;;21.63;6.60;;;24.10;99.90;;;;;;6245806;23;20034;-91
2022/06/07 00:25:05;;;;;;;26.40;7.55;;;24.20;99.90;;;;;;6245802;23;20462;-91
2022/06/07 00:27:32;;;;;;;26.92;6.70;;;24.20;99.90;;;;;;6245698;23;20042;-91
2022/06/07 00:29:59;;;;;;;19.42;6.88;;;24.20;99.90;;;;;;6245540;23;20004;-91
2022/06/07 00:32:26;;;;;;;25.20;6.78;;;24.20;99.90;;;;;;6245721;23;20012;-91
2022/06/07 00:34:53;;;;;;;24.85;6.68;;;24.20;99.90;;;;;;6246484;23;20028;-91
2022/06/07 00:37:20;;;;;;;20.90;6.60;;;24.20;99.90;;;;;;6247504;23;20042;-91
2022/06/07 00:39:46;;;;;;;26.10;8.27;;;24.30;99.90;;;;;;6247761;23;20011;-91
2022/06/07 00:42:13;;;;;;;27.45;7.32;;;24.20;99.90;;;;;;6247370;23;20004;-91
2022/06/07 00:44:44;;;;;;;19.20;6.43;;;24.10;99.90;;;;;;6247485;23;20008;-92
2022/06/07 00:47:18;;;;;;;19.55;6.22;;;24.10;99.90;;;;;;6247462;23;20087;-92
2022/06/07 00:50:08;;;;;;;22.27;6.72;;;24.10;99.90;;;;;;6247422;23;20095;-92
2022/06/07 00:52:38;;;;;;;23.70;7.10;;;24.10;99.90;;;;;;6222109;23;20016;-92
2022/06/07 00:55:07;;;;;;;20.55;6.40;;;24.10;99.90;;;;;;6247320;23;20026;-94
2022/06/07 00:57:43;;;;;;;24.70;6.13;;;24.10;99.90;;;;;;6247388;23;20008;-91
2022/06/07 01:00:22;;;;;;;25.27;6.80;;;24.10;99.90;;;;;;6247561;23;20036;-92
2022/06/07 01:02:51;;;;;;;22.70;6.00;;;24.10;99.90;;;;;;6247325;23;20442;-91
2022/06/07 01:05:19;;;;;;;24.40;6.82;;;24.10;99.90;;;;;;6247389;23;20004;-91
2022/06/07 01:10:45;;;;;;;21.15;6.22;;;24.10;99.90;;;;;;6247065;22;20019;-92
2022/06/07 01:13:30;;;;;;;16.02;5.75;;;24.10;99.90;;;;;;6247037;23;20454;-91
2022/06/07 01:16:06;;;;;;;21.02;6.72;;;24.20;99.90;;;;;;6222934;23;20043;-91
2022/06/07 01:18:37;;;;;;;23.25;7.43;;;24.20;99.90;;;;;;6247189;23;20495;-92
2022/06/07 01:21:21;;;;;;;19.30;6.90;;;24.20;99.90;;;;;;6247096;23;20015;-91
2022/06/07 01:23:49;;;;;;;27.88;6.32;;;24.20;99.90;;;;;;6222103;23;20008;-91
2022/06/07 01:26:20;;;;;;;25.35;6.40;;;24.20;99.90;;;;;;6246999;23;20050;-91
2022/06/07 01:28:50;;;;;;;21.27;6.85;;;24.20;99.90;;;;;;6247093;23;20004;-91
2022/06/07 01:31:17;;;;;;;20.20;6.30;;;24.10;99.90;;;;;;6246952;23;20027;-91
2022/06/07 01:33:44;;;;;;;16.17;6.13;;;24.10;99.90;;;;;;6247105;23;20008;-91
2022/06/07 01:36:15;;;;;;;23.33;6.68;;;24.10;99.90;;;;;;6247043;23;20008;-92
2022/06/07 01:41:53;;;;;;;17.65;6.03;;;24.10;99.90;;;;;;6246886;23;20107;-92
2022/06/07 01:41:55;;;;;;;20.20;6.72;;;24.10;99.90;;;;;;6246935;23;20012;-92
2022/06/07 01:44:49;;;;;;;23.52;6.60;;;24.10;99.90;;;;;;6247150;23;20009;-92
2022/06/07 01:47:30;;;;;;;26.17;6.53;;;24.00;99.90;;;;;;6246396;23;20099;-92
2022/06/07 01:50:00;;;;;;;17.50;6.45;;;24.00;99.90;;;;;;6246899;23;20004;-92
2022/06/07 01:52:31;;;;;;;21.40;6.10;;;24.00;99.90;;;;;;6246960;23;20012;-91
2022/06/07 01:55:04;;;;;;;23.30;6.20;;;24.00;99.90;;;;;;6246660;23;20381;-90
2022/06/07 01:57:36;;;;;;;22.92;5.50;;;24.00;99.90;;;;;;6246860;23;20012;-92
2022/06/07 02:00:28;;;;;;;18.60;5.82;;;23.90;99.90;;;;;;6246745;23;20004;-92
2022/06/07 02:02:54;;;;;;;21.08;6.32;;;23.90;99.90;;;;;;6246796;23;20008;-92
2022/06/07 02:05:21;;;;;;;18.80;6.68;;;23.90;99.90;;;;;;6246754;23;20402;-92
2022/06/07 02:07:55;;;;;;;20.65;6.57;;;23.90;99.90;;;;;;6246574;23;20063;-91
2022/06/07 02:10:29;;;;;;;21.80;6.30;;;23.90;99.90;;;;;;6246709;23;20035;-92
2022/06/07 02:13:00;;;;;;;16.45;5.78;;;23.90;99.90;;;;;;6247984;22;20015;-93
2022/06/07 02:15:26;;;;;;;19.67;5.72;;;23.80;99.90;;;;;;6226340;22;20502;-91
2022/06/07 02:18:05;;;;;;;18.40;5.70;;;23.70;99.90;;;;;;6251544;22;20038;-91
2022/06/07 02:20:41;;;;;;;22.30;6.13;;;23.70;99.90;;;;;;6227882;22;20035;-92
2022/06/07 02:23:08;;;;;;;23.00;6.40;;;23.60;99.90;;;;;;6222047;22;20003;-93
2022/06/07 02:25:47;;;;;;;18.50;6.00;;;23.70;99.90;;;;;;6226343;22;20029;-92
2022/06/07 02:28:16;;;;;;;16.08;6.65;;;23.60;99.90;;;;;;6226577;22;20015;-92
2022/06/07 02:30:45;;;;;;;23.77;6.97;;;23.70;99.90;;;;;;6226094;22;20012;-92
2022/06/07 02:33:14;;;;;;;22.15;7.00;;;23.60;99.90;;;;;;6226268;22;20069;-91
2022/06/07 02:35:42;;;;;;;21.08;6.60;;;23.60;99.90;;;;;;6226272;22;20004;-93
2022/06/07 02:38:10;;;;;;;21.10;6.28;;;23.60;99.90;;;;;;6226117;22;20053;-91
2022/06/07 02:40:37;;;;;;;15.45;5.70;;;23.70;99.90;;;;;;6226089;22;20394;-92
2022/06/07 02:43:05;;;;;;;22.30;6.75;;;23.60;99.90;;;;;;6226457;22;20011;-92
2022/06/07 02:45:31;;;;;;;20.80;6.00;;;23.60;99.90;;;;;;6226076;22;20010;-93
2022/06/07 02:47:58;;;;;;;21.65;6.15;;;23.60;99.90;;;;;;6251589;22;20050;-92
2022/06/07 02:50:24;;;;;;;27.08;7.20;;;23.60;99.90;;;;;;6251138;22;20007;-91
2022/06/07 02:52:53;;;;;;;22.00;5.60;;;23.60;99.90;;;;;;6226456;22;20037;-92
2022/06/07 02:55:25;;;;;;;21.40;6.43;;;23.60;99.90;;;;;;6251251;22;20000;-91
2022/06/07 02:57:56;;;;;;;19.98;5.65;;;23.60;99.90;;;;;;6226208;22;20008;-91
2022/06/07 03:00:26;;;;;;;14.60;5.72;;;23.60;99.90;;;;;;6226633;22;20422;-91
2022/06/07 03:02:53;;;;;;;16.27;5.88;;;23.60;99.90;;;;;;6226055;22;20073;-90
2022/06/07 03:05:22;;;;;;;18.08;5.88;;;23.50;99.90;;;;;;6226521;22;20007;-90
2022/06/07 03:07:54;;;;;;;21.17;6.53;;;23.50;99.90;;;;;;6226916;22;20045;-90
2022/06/07 03:10:21;;;;;;;15.77;5.80;;;23.40;99.90;;;;;;6250875;22;20007;-93
2022/06/07 03:12:49;;;;;;;13.57;4.95;;;23.50;99.90;;;;;;6226358;22;20430;-94
2022/06/07 03:15:19;;;;;;;15.55;4.93;;;23.50;99.90;;;;;;6216104;23;20013;-92
2022/06/07 03:17:46;;;;;;;18.45;5.30;;;23.50;99.90;;;;;;6190799;23;20012;-91
2022/06/07 03:20:15;;;;;;;17.00;5.07;;;23.60;99.90;;;;;;6191018;23;20015;-93
2022/06/07 03:22:46;;;;;;;14.98;4.82;;;23.60;99.90;;;;;;6190756;23;20004;-92
2022/06/07 03:25:13;;;;;;;14.05;4.80;;;23.70;99.90;;;;;;6190635;23;20012;-93
2022/06/07 03:27:42;;;;;;;18.60;5.35;;;23.70;99.90;;;;;;6190917;23;20012;-93
2022/06/07 03:30:18;;;;;;;16.48;5.22;;;23.70;99.90;;;;;;6191319;23;20022;-92
2022/06/07 03:32:46;;;;;;;21.38;5.43;;;23.80;99.90;;;;;;6190795;23;20070;-91
2022/06/07 03:35:14;;;;;;;13.20;4.30;;;23.80;99.90;;;;;;6190723;23;20005;-92
2022/06/07 03:37:41;;;;;;;13.27;4.40;;;23.80;99.90;;;;;;6190638;23;20028;-92
2022/06/07 03:40:11;;;;;;;15.00;4.65;;;23.80;99.90;;;;;;6190428;23;20435;-93
2022/06/07 03:42:39;;;;;;;8.15;4.50;;;23.80;99.90;;;;;;6191176;23;20004;-93
2022/06/07 03:45:07;;;;;;;20.15;5.25;;;23.90;99.90;;;;;;6190853;23;20341;-92
2022/06/07 03:47:34;;;;;;;14.30;5.65;;;23.90;99.90;;;;;;6190565;23;20386;-93
2022/06/07 03:50:01;;;;;;;11.77;4.72;;;23.90;99.90;;;;;;6190542;23;20013;-92
2022/06/07 03:52:30;;;;;;;12.70;4.38;;;24.00;99.90;;;;;;6190887;23;20017;-94
2022/06/07 03:54:56;;;;;;;14.55;4.10;;;24.00;99.90;;;;;;6190610;23;20005;-92
2022/06/07 03:57:30;;;;;;;12.75;4.78;;;24.10;99.90;;;;;;6191180;23;20008;-92
2022/06/07 04:00:00;;;;;;;12.23;4.20;;;24.20;99.90;;;;;;6191438;23;20015;-92
2022/06/07 04:02:30;;;;;;;14.32;4.40;;;24.30;99.90;;;;;;6216328;23;20092;-92
2022/06/07 04:04:57;;;;;;;17.38;4.40;;;24.40;99.90;;;;;;6190492;23;20001;-92
2022/06/07 04:10:12;;;;;;;17.55;4.97;;;24.60;99.90;;;;;;6216552;23;20058;-92
2022/06/07 04:12:50;;;;;;;14.70;4.25;;;24.80;99.90;;;;;;6194354;23;20505;-92
2022/06/07 04:15:21;;;;;;;15.20;4.10;;;24.90;99.90;;;;;;6193144;23;20020;-93
2022/06/07 04:17:53;;;;;;;10.70;3.83;;;25.10;99.90;;;;;;6192927;23;20012;-93
2022/06/07 04:20:34;;;;;;;13.87;4.93;;;25.10;99.90;;;;;;6195196;23;20009;-93
2022/06/07 04:23:06;;;;;;;14.13;3.80;;;25.20;99.90;;;;;;6192170;23;20005;-92
2022/06/07 04:25:39;;;;;;;11.60;4.38;;;25.20;99.90;;;;;;6193058;23;20035;-93
2022/06/07 04:28:08;;;;;;;13.50;4.25;;;25.30;99.90;;;;;;6192677;23;20431;-91
2022/06/07 04:30:44;;;;;;;11.82;4.05;;;25.30;99.90;;;;;;6192451;23;20015;-93
2022/06/07 04:33:15;;;;;;;11.45;3.95;;;25.40;99.90;;;;;;6192387;23;20430;-93
2022/06/07 04:35:45;;;;;;;11.63;4.50;;;25.60;99.90;;;;;;6217170;23;20004;-93
2022/06/07 04:38:16;;;;;;;12.38;3.60;;;26.00;99.90;;;;;;6193279;23;20013;-92
2022/06/07 04:40:46;;;;;;;14.77;3.85;;;26.90;99.90;;;;;;6192238;23;20036;-93
2022/06/07 04:43:14;;;;;;;11.63;4.53;;;28.30;99.90;;;;;;6192222;23;20038;-94
2022/06/07 04:45:42;;;;;;;14.13;3.35;;;29.20;99.90;;;;;;6192163;23;20036;-93
2022/06/07 04:48:16;;;;;;;12.50;3.58;;;29.90;99.90;;;;;;6192517;23;20036;-93
2022/06/07 04:51:25;;;;;;;10.30;3.22;;;30.40;99.90;;;;;;6195290;23;20016;-93
2022/06/07 04:54:12;;;;;;;11.60;3.50;;;31.10;99.90;;;;;;6237487;23;20019;-93
2022/06/07 04:56:47;;;;;;;17.52;3.92;;;31.40;99.90;;;;;;6193743;23;20423;-93
2022/06/07 04:59:14;;;;;;;10.45;3.80;;;31.50;99.90;;;;;;6191851;23;20013;-92
2022/06/07 05:01:50;;;;;;;14.07;3.80;;;32.00;99.90;;;;;;6193646;23;20088;-92
2022/06/07 05:04:25;;;;;;;15.60;4.60;;;32.00;99.90;;;;;;6193725;23;20004;-92
2022/06/07 05:06:54;;;;;;;10.73;3.53;;;32.50;99.90;;;;;;6192042;23;20005;-93
2022/06/07 05:09:29;;;;;;;14.68;3.60;;;32.40;99.90;;;;;;6193631;23;20005;-92
2022/06/07 05:12:03;;;;;;;12.45;4.25;;;32.40;99.90;;;;;;6193706;23;20036;-91
2022/06/07 05:14:36;;;;;;;20.90;3.90;;;31.90;99.90;;;;;;6213021;23;20026;-91
2022/06/07 05:17:03;;;;;;;15.30;3.72;;;31.60;99.90;;;;;;6245915;23;20012;-89
2022/06/07 05:19:33;;;;;;;15.07;3.60;;;31.40;99.90;;;;;;6245896;23;20008;-92
2022/06/07 05:22:09;;;;;;;13.32;3.75;;;31.10;99.90;;;;;;6245720;23;20012;-90
2022/06/07 05:24:41;;;;;;;12.88;3.90;;;30.70;99.90;;;;;;6246253;23;20012;-90
2022/06/07 05:27:18;;;;;;;10.75;3.72;;;30.70;99.90;;;;;;6245632;23;20107;-88
2022/06/07 05:29:50;;;;;;;17.73;4.50;;;30.40;99.90;;;;;;6245602;23;20012;-90
2022/06/07 05:32:35;;;;;;;16.65;4.15;;;30.40;99.90;;;;;;6245752;23;20102;-88
2022/06/07 05:35:04;;;;;;;14.23;3.83;;;30.90;99.90;;;;;;6245546;23;20008;-89
2022/06/07 05:37:34;;;;;;;11.65;4.05;;;31.20;99.90;;;;;;6245800;23;20011;-90
2022/06/07 05:40:17;;;;;;;16.90;4.88;;;32.20;99.90;;;;;;6245523;23;20008;-89
2022/06/07 05:42:45;;;;;;;8.25;4.30;;;33.10;99.90;;;;;;6245678;23;20016;-89
2022/06/07 05:45:18;;;;;;;17.85;3.75;;;33.70;99.90;;;;;;6246109;23;20426;-89
2022/06/07 05:47:53;;;;;;;13.07;4.05;;;33.30;99.90;;;;;;6246966;23;20028;-89
2022/06/07 05:50:20;;;;;;;13.45;4.57;;;32.80;99.90;;;;;;6246898;23;20008;-90
2022/06/07 05:52:52;;;;;;;14.73;4.45;;;32.50;99.90;;;;;;6247027;23;20008;-90
2022/06/07 05:55:20;;;;;;;14.27;4.60;;;32.90;99.90;;;;;;6246684;23;20389;-89
2022/06/07 05:57:54;;;;;;;18.20;5.18;;;32.80;99.90;;;;;;6246681;23;20005;-90
2022/06/07 06:00:24;;;;;;;20.67;5.88;;;33.30;99.90;;;;;;6246669;23;20011;-90
2022/06/07 06:02:52;;;;;;;22.25;6.72;;;33.60;99.90;;;;;;6246707;23;20011;-89
2022/06/07 06:05:50;;;;;;;14.95;5.03;;;33.90;99.90;;;;;;6247189;23;20008;-89
2022/06/07 06:11:14;;;;;;;17.02;5.80;;;34.30;99.90;;;;;;6246516;22;20258;-91
2022/06/07 06:13:45;;;;;;;14.77;5.07;;;34.30;99.90;;;;;;6247270;23;20000;-91
2022/06/07 06:16:19;;;;;;;19.00;5.10;;;34.00;99.90;;;;;;6246303;23;20011;-89
2022/06/07 06:18:52;;;;;;;17.33;5.05;;;33.60;99.90;;;;;;6246851;23;20036;-89
2022/06/07 06:21:23;;;;;;;13.13;4.88;;;31.90;99.90;;;;;;6221766;23;20008;-88
2022/06/07 06:23:56;;;;;;;15.80;4.28;;;31.30;99.90;;;;;;6221235;23;20461;-91
2022/06/07 06:26:22;;;;;;;12.63;4.18;;;30.50;99.90;;;;;;6221280;23;20005;-88
2022/06/07 06:29:10;;;;;;;12.75;4.15;;;29.80;99.90;;;;;;6246522;23;20004;-88
2022/06/07 06:31:40;;;;;;;11.30;4.13;;;28.70;99.90;;;;;;6247320;23;20020;-89
2022/06/07 06:34:12;;;;;;;17.77;4.22;;;28.00;99.90;;;;;;6222076;23;20341;-90
2022/06/07 06:36:40;;;;;;;13.05;4.00;;;27.80;99.90;;;;;;6246359;23;20008;-89
2022/06/07 06:39:08;;;;;;;17.35;4.88;;;28.00;99.90;;;;;;6246491;23;20063;-87
2022/06/07 06:42:19;;;;;;;14.35;4.18;;;28.30;99.90;;;;;;6246600;23;20054;-89
2022/06/07 06:45:14;;;;;;;14.73;4.60;;;28.60;99.90;;;;;;6226936;23;20039;-90
2022/06/07 06:47:45;;;;;;;12.90;3.80;;;29.20;99.90;;;;;;6245767;23;20438;-89
2022/06/07 06:50:13;;;;;;;13.77;4.50;;;30.00;99.90;;;;;;6246356;23;20011;-91
2022/06/07 06:52:41;;;;;;;12.82;5.68;;;31.40;99.90;;;;;;6246228;23;20034;-89
2022/06/07 06:55:11;;;;;;;11.85;5.43;;;32.90;99.90;;;;;;6246375;23;20008;-92
2022/06/07 06:57:38;;;;;;;19.80;5.55;;;33.70;99.90;;;;;;6246300;23;20011;-90
2022/06/07 07:00:09;;;;;;;14.45;5.28;;;34.80;99.90;;;;;;6246479;23;20008;-91
2022/06/07 07:02:44;;;;;;;12.43;5.20;;;34.60;99.90;;;;;;6245749;23;20485;-88
2022/06/07 07:05:18;;;;;;;16.25;4.75;;;33.90;99.90;;;;;;6246295;23;20019;-89
2022/06/07 07:08:11;;;;;;;12.95;4.28;;;32.80;99.90;;;;;;6246101;23;20015;-89
2022/06/07 07:10:39;;;;;;;20.02;5.32;;;31.40;99.90;;;;;;6245934;23;20354;-88
2022/06/07 07:13:07;;;;;;;12.40;4.40;;;31.20;99.90;;;;;;6248063;22;20004;-91
2022/06/07 07:15:37;;;;;;;15.48;5.47;;;31.30;99.90;;;;;;6251313;22;20039;-90
2022/06/07 07:18:13;;;;;;;13.65;4.35;;;31.70;99.90;;;;;;6228272;22;20489;-92
2022/06/07 07:20:46;;;;;;;14.35;5.63;;;32.00;99.90;;;;;;6227223;22;20086;-90
2022/06/07 07:23:24;;;;;;;16.63;5.70;;;31.90;99.90;;;;;;6251302;22;20425;-90
2022/06/07 07:25:51;;;;;;;13.48;5.90;;;32.80;99.90;;;;;;6225854;22;20004;-90
2022/06/07 07:28:22;;;;;;;10.05;5.53;;;33.10;99.90;;;;;;6251195;22;20022;-90
2022/06/07 07:30:59;;;;;;;9.13;4.88;;;33.70;99.90;;;;;;6225502;22;20467;-90
2022/06/07 07:33:27;;;;;;;8.40;5.60;;;33.20;99.90;;;;;;6226055;22;20026;-90
2022/06/07 07:36:32;;;;;;;7.72;5.57;;;33.00;99.90;;;;;;6250861;22;20008;-90
2022/06/07 12:33:33;;;;;;;9.70;3.58;;;31.50;99.90;;;;;;6291138;22;20034;-92
2022/06/07 12:36:06;;;;;;;8.95;3.58;;;31.20;99.90;;;;;;6263715;22;20007;-92
2022/06/07 12:38:34;;;;;;;7.40;3.83;;;31.20;99.90;;;;;;6265681;22;20487;-92
2022/06/07 12:41:13;;;;;;;11.35;3.88;;;31.20;99.90;;;;;;6265817;22;20440;-92
2022/06/07 12:43:51;;;;;;;8.00;3.80;;;31.40;99.90;;;;;;6259640;22;20007;-93
2022/06/07 12:46:27;;;;;;;5.88;3.47;;;30.90;99.90;;;;;;6235065;22;20065;-92
2022/06/07 12:48:55;;;;;;;7.10;3.33;;;30.60;99.90;;;;;;6234722;22;20029;-91
2022/06/07 12:51:25;;;;;;;10.40;3.95;;;30.20;99.90;;;;;;6233061;22;20021;-94
2022/06/07 12:54:00;;;;;;;7.65;3.25;;;30.60;99.90;;;;;;6232981;22;20008;-92
2022/06/07 12:56:30;;;;;;;12.75;3.80;;;31.00;99.90;;;;;;6234539;22;20003;-93
2022/06/07 12:58:58;;;;;;;5.88;3.10;;;31.30;99.90;;;;;;6236340;22;20007;-93
2022/06/07 13:01:33;;;;;;;9.40;3.30;;;31.50;99.90;;;;;;6236935;22;20007;-93
2022/06/07 13:04:35;;;;;;;8.73;3.15;;;31.40;99.90;;;;;;6236493;22;20031;-92
2022/06/07 13:07:18;;;;;;;9.35;3.45;;;31.10;99.90;;;;;;6238329;22;20003;-91
2022/06/07 13:09:48;;;;;;;11.15;3.85;;;31.20;99.90;;;;;;6232456;22;20008;-92
2022/06/07 13:12:34;;;;;;;5.80;2.85;;;31.40;99.90;;;;;;6231581;22;20019;-91
2022/06/07 13:15:13;;;;;;;10.02;3.63;;;31.60;99.90;;;;;;6230241;22;20057;-91
2022/06/07 13:17:51;;;;;;;5.75;3.40;;;31.50;99.90;;;;;;6228662;22;20429;-90
2022/06/07 13:20:33;;;;;;;4.63;3.40;;;31.40;99.90;;;;;;6229945;22;20011;-92
2022/06/07 13:23:01;;;;;;;7.45;3.50;;;31.40;99.90;;;;;;6230442;22;20031;-90
2022/06/07 13:25:32;;;;;;;9.90;3.05;;;31.20;99.90;;;;;;6229982;22;20094;-92
2022/06/07 13:28:04;;;;;;;1999.90;999.90;;;31.20;99.90;;;;;;6226840;22;20003;-91
2022/06/07 13:30:34;;;;;;;1999.90;999.90;;;31.00;99.90;;;;;;6252153;22;20011;-89
2022/06/07 13:33:18;;;;;;;1999.90;999.90;;;31.20;99.90;;;;;;6227519;22;20019;-90
2022/06/07 13:35:57;;;;;;;1999.90;999.90;;;30.90;99.90;;;;;;6227031;22;20008;-89
2022/06/07 13:38:37;;;;;;;1999.90;999.90;;;31.10;99.90;;;;;;6228068;22;20402;-93
2022/06/07 13:41:22;;;;;;;1999.90;999.90;;;31.20;99.90;;;;;;6235003;22;20031;-93
2022/06/07 13:44:06;;;;;;;1999.90;999.90;;;31.60;99.90;;;;;;6260373;22;20003;-92
2022/06/07 13:46:40;;;;;;;1999.90;999.90;;;31.20;99.90;;;;;;6237773;22;20086;-92
2022/06/07 13:55:31;;;;;;;1999.90;999.90;;;30.90;99.90;;;;;;6251934;22;20014;-87
2022/06/07 13:57:58;;;;;;;1999.90;999.90;;;30.70;99.90;;;;;;6251926;22;20016;-87
2022/06/07 14:00:24;;;;;;;18.67;12.32;;;30.70;99.90;;;;;;6226482;22;20047;-88
2022/06/07 14:03:15;;;;;;;1999.90;999.90;;;30.90;99.90;;;;;;6226384;22;20065;-88
2022/06/07 14:05:42;;;;;;;1999.90;999.90;;;31.30;99.90;;;;;;6226386;22;20114;-88
2022/06/07 14:08:14;;;;;;;1999.90;999.90;;;31.10;99.90;;;;;;6226335;22;20129;-87
2022/06/07 14:10:44;;;;;;;1999.90;999.90;;;30.80;99.90;;;;;;6251629;22;20047;-88
2022/06/07 14:13:10;;;;;;;1999.90;999.90;;;30.90;99.90;;;;;;6227522;22;20007;-89
2022/06/07 14:15:39;;;;;;;1999.90;999.90;;;31.00;99.90;;;;;;6226491;22;20077;-89
2022/06/07 14:18:18;;;;;;;1999.90;999.90;;;31.00;99.90;;;;;;6227056;22;20008;-89
2022/06/07 14:20:48;;;;;;;1999.90;999.90;;;31.20;99.90;;;;;;6254105;22;20015;-89
2022/06/07 14:23:18;;;;;;;1999.90;999.90;;;31.00;99.90;;;;;;6228322;22;19999;-91
2022/06/07 14:25:46;;;;;;;1999.90;999.90;;;30.90;99.90;;;;;;6255602;22;20049;-91
2022/06/07 14:28:21;;;;;;;1999.90;999.90;;;31.00;99.90;;;;;;6230768;22;20006;-91
2022/06/07 14:30:51;;;;;;;1999.90;999.90;;;31.10;99.90;;;;;;6226993;22;20020;-91
2022/06/07 14:33:20;;;;;;;1999.90;999.90;;;30.80;99.90;;;;;;6246110;23;20044;-91
2022/06/07 14:35:47;;;;;;;1999.90;999.90;;;31.00;99.90;;;;;;6221149;23;20018;-91
2022/06/07 14:38:18;;;;;;;1999.90;999.90;;;31.30;99.90;;;;;;6221217;23;20061;-91
2022/06/07 14:40:45;;;;;;;1999.90;999.90;;;30.50;99.90;;;;;;6220984;23;20004;-90
2022/06/07 14:43:16;;;;;;;1999.90;999.90;;;30.30;99.90;;;;;;6220888;23;20422;-93
2022/06/07 14:46:16;;;;;;;1999.90;999.90;;;30.10;99.90;;;;;;6221403;23;20441;-91
2022/06/07 14:49:06;;;;;;;1999.90;999.90;;;30.20;99.90;;;;;;6221125;23;20012;-92
2022/06/07 14:51:40;;;;;;;1999.90;999.90;;;29.90;99.90;;;;;;6221094;23;20104;-90
2022/06/07 14:54:26;;;;;;;1999.90;999.90;;;29.80;99.90;;;;;;6221532;23;20031;-90
2022/06/07 14:56:56;;;;;;;1999.90;999.90;;;29.90;99.90;;;;;;6221107;23;20004;-90
2022/06/07 14:59:24;;;;;;;1999.90;999.90;;;30.10;99.90;;;;;;6221068;23;20010;-89
2022/06/07 15:02:00;;;;;;;1999.90;999.90;;;29.80;99.90;;;;;;6220960;23;20012;-89
2022/06/07 15:04:45;;;;;;;1535.72;767.47;;;29.70;99.90;;;;;;6221039;23;20011;-90
2022/06/07 15:07:26;;;;;;;92.78;83.28;;;29.80;99.90;;;;;;6221261;23;20016;-91
2022/06/07 15:09:54;;;;;;;19.25;17.73;;;29.60;99.90;;;;;;6221057;23;20032;-89
2022/06/07 15:12:39;;;;;;;13.57;12.30;;;29.50;99.90;;;;;;6220716;23;20016;-89
2022/06/07 15:15:06;;;;;;;1999.90;999.90;;;29.50;99.90;;;;;;6220975;23;20008;-89
2022/06/07 15:17:52;;;;;;;1999.90;999.90;;;29.60;99.90;;;;;;6220828;23;20019;-89
2022/06/07 15:20:40;;;;;;;1999.90;999.90;;;29.70;99.90;;;;;;6220716;23;20461;-90
2022/06/07 15:23:19;;;;;;;1999.90;999.90;;;29.70;99.90;;;;;;6220833;23;20008;-88
2022/06/07 15:25:52;;;;;;;1999.90;999.90;;;29.60;99.90;;;;;;6220982;23;20008;-89
2022/06/07 15:28:21;;;;;;;1999.90;999.90;;;29.60;99.90;;;;;;6220856;23;20004;-89
2022/06/07 15:30:49;;;;;;;138.27;119.18;;;29.60;99.90;;;;;;6220795;23;20497;-90
2022/06/07 15:33:18;;;;;;;119.72;112.55;;;29.80;99.90;;;;;;6221033;23;20070;-88
2022/06/07 15:35:47;;;;;;;55.50;51.53;;;29.90;99.90;;;;;;6220702;23;20004;-90
2022/06/07 15:38:17;;;;;;;19.70;18.15;;;30.00;99.90;;;;;;6220840;23;20095;-90
2022/06/07 15:40:43;;;;;;;29.25;27.05;;;29.70;99.90;;;;;;6220623;23;20019;-89
2022/06/07 15:43:16;;;;;;;26.63;24.52;;;29.60;99.90;;;;;;6220919;23;20027;-89
2022/06/07 15:45:46;;;;;;;23.48;21.63;;;29.60;99.90;;;;;;6220993;23;20093;-90
2022/06/07 15:48:23;;;;;;;32.50;30.20;;;29.50;99.90;;;;;;6220734;23;20000;-91
2022/06/07 15:50:56;;;;;;;31.88;29.52;;;29.40;99.90;;;;;;6221039;23;20043;-90
2022/06/07 15:53:29;;;;;;;8.07;6.15;;;29.30;99.90;;;;;;6220738;23;20032;-89
2022/06/07 15:55:57;;;;;;;11.63;9.20;;;29.30;99.90;;;;;;6220829;23;20004;-89
2022/06/07 16:01:10;;;;;;;10.60;4.13;;;29.30;99.90;;;;;;6246029;22;20015;-89
2022/06/07 16:03:43;;;;;;;7.63;4.00;;;29.20;99.90;;;;;;6221324;23;20464;-90
2022/06/07 16:06:10;;;;;;;11.10;4.40;;;29.30;99.90;;;;;;6221799;23;20004;-89
2022/06/07 16:08:36;;;;;;;6.60;3.00;;;29.30;99.90;;;;;;6222571;23;20008;-89
2022/06/07 16:11:04;;;;;;;6.90;3.35;;;29.20;99.90;;;;;;6223229;23;20020;-89
2022/06/07 16:13:32;;;;;;;6.57;3.20;;;29.40;99.90;;;;;;6222499;23;20039;-90
2022/06/07 16:16:01;;;;;;;7.75;3.05;;;29.50;99.90;;;;;;6222871;23;20115;-91
2022/06/07 16:19:05;;;;;;;6.50;3.00;;;29.40;99.90;;;;;;6222713;23;20083;-90
2022/06/07 16:21:32;;;;;;;6.97;3.55;;;29.50;99.90;;;;;;6222884;23;20023;-89
2022/06/07 16:23:59;;;;;;;15.40;14.30;;;29.40;99.90;;;;;;6222649;23;20006;-90
2022/06/07 16:26:30;;;;;;;15.02;13.60;;;29.20;99.90;;;;;;6222644;23;20012;-89
2022/06/07 16:34:27;;;;;;;100.53;95.32;;;29.30;99.90;;;;;;6257091;22;20074;-89
2022/06/07 16:36:54;;;;;;;74.05;70.07;;;29.10;99.90;;;;;;6234314;22;20012;-90
2022/06/07 16:39:26;;;;;;;876.58;400.13;;;29.10;99.90;;;;;;6234111;22;20004;-89
2022/06/07 16:41:52;;;;;;;1525.25;755.03;;;29.10;99.90;;;;;;6234564;22;20019;-90
2022/06/07 16:44:19;;;;;;;271.65;256.65;;;29.00;99.90;;;;;;6232972;22;20303;-90
2022/06/07 16:46:55;;;;;;;207.02;196.82;;;29.00;99.90;;;;;;6234669;22;20011;-91
2022/06/07 16:49:31;;;;;;;228.40;96.50;;;28.90;99.90;;;;;;6260058;22;20082;-90
2022/06/07 16:52:01;;;;;;;177.30;132.25;;;28.90;99.90;;;;;;6257330;22;20464;-90
2022/06/07 16:54:28;;;;;;;72.10;68.35;;;28.90;99.90;;;;;;6231765;22;20007;-90
2022/06/07 16:57:00;;;;;;;108.78;99.43;;;29.00;99.90;;;;;;6259314;22;20062;-90
2022/06/07 16:59:28;;;;;;;6.85;3.40;;;28.80;99.90;;;;;;6259986;22;20003;-91
2022/06/07 17:01:56;;;;;;;1025.90;234.02;;;28.90;99.90;;;;;;6233357;22;20000;-88
2022/06/07 17:04:24;;;;;;;1999.90;999.90;;;28.80;99.90;;;;;;6260577;22;20003;-89
2022/06/07 17:06:50;;;;;;;1999.90;999.90;;;28.70;99.90;;;;;;6234506;22;20039;-90
2022/06/07 17:09:18;;;;;;;1999.90;999.90;;;28.50;99.90;;;;;;6232556;22;20383;-89
2022/06/07 17:11:45;;;;;;;1999.90;999.90;;;28.60;99.90;;;;;;6233341;22;20018;-92
2022/06/07 17:14:13;;;;;;;1999.90;999.90;;;28.50;99.90;;;;;;6257991;22;20004;-93
2022/06/07 17:16:46;;;;;;;1999.90;999.90;;;28.60;99.90;;;;;;6234489;22;20023;-91
2022/06/07 17:19:15;;;;;;;1999.90;999.90;;;28.50;99.90;;;;;;6257191;22;20008;-90
2022/06/07 17:21:52;;;;;;;1999.90;999.90;;;28.30;99.90;;;;;;6232486;22;20008;-90
2022/06/07 17:24:20;;;;;;;1999.90;999.90;;;28.20;99.90;;;;;;6234754;22;20011;-91
2022/06/07 17:26:47;;;;;;;1999.90;999.90;;;28.10;99.90;;;;;;6234672;22;20008;-90
2022/06/07 17:29:14;;;;;;;1999.90;999.90;;;28.00;99.90;;;;;;6256968;22;20004;-91
2022/06/07 17:31:41;;;;;;;1999.90;999.90;;;27.90;99.90;;;;;;6231811;22;20017;-90
2022/06/07 17:34:08;;;;;;;1999.90;999.90;;;27.80;99.90;;;;;;6234211;22;20016;-90
2022/06/07 17:36:35;;;;;;;1999.90;999.90;;;27.80;99.90;;;;;;6232489;22;20011;-90
2022/06/07 17:39:07;;;;;;;1999.90;999.90;;;27.80;99.90;;;;;;6233909;22;20445;-90
2022/06/07 17:41:40;;;;;;;1999.90;999.90;;;27.80;99.90;;;;;;6233738;22;20007;-90
2022/06/07 17:44:06;;;;;;;1999.90;999.90;;;27.80;99.90;;;;;;6234518;22;20008;-91
2022/06/07 17:46:33;;;;;;;1999.90;999.90;;;27.70;99.90;;;;;;6232315;22;20003;-91
2022/06/07 17:49:00;;;;;;;1999.90;999.90;;;27.60;99.90;;;;;;6234035;22;20007;-89
2022/06/07 17:51:27;;;;;;;1999.90;999.90;;;27.60;99.90;;;;;;6233218;22;20038;-89
2022/06/07 17:54:06;;;;;;;1999.90;999.90;;;27.60;99.90;;;;;;6230002;22;20014;-89
2022/06/07 17:56:33;;;;;;;1999.90;999.90;;;27.50;99.90;;;;;;6226733;22;20035;-90
2022/06/07 17:58:59;;;;;;;1999.90;999.90;;;27.40;99.90;;;;;;6226874;22;20004;-90
2022/06/07 18:01:26;;;;;;;1999.90;999.90;;;27.40;99.90;;;;;;6251952;22;20008;-90
2022/06/07 18:03:53;;;;;;;1999.90;999.90;;;27.30;99.90;;;;;;6226558;22;20011;-90
2022/06/07 18:06:20;;;;;;;1999.90;999.90;;;27.20;99.90;;;;;;6226657;22;20003;-90
2022/06/07 18:08:53;;;;;;;1999.90;999.90;;;27.30;99.90;;;;;;6226542;22;20102;-89
2022/06/07 18:11:29;;;;;;;1999.90;999.90;;;27.20;99.90;;;;;;6229413;22;20026;-91
2022/06/07 18:13:59;;;;;;;1999.90;999.90;;;27.20;99.90;;;;;;6226844;22;20011;-90